createdAt,value
2023-02-14T00:00:48.572Z,14.00
2023-02-14T00:03:15.919Z,14.03
2023-02-14T00:05:42.999Z,13.30
2023-02-14T00:08:09.845Z,13.77
2023-02-14T00:10:36.841Z,14.40
2023-02-14T00:13:04.780Z,13.65
2023-02-14T00:15:31.517Z,14.40
2023-02-14T00:17:59.962Z,14.00
2023-02-14T00:20:28.328Z,14.48
2023-02-14T00:22:55.072Z,16.13
2023-02-14T00:25:21.981Z,15.23
2023-02-14T00:27:48.752Z,16.03
2023-02-14T00:30:15.778Z,15.63
2023-02-14T00:32:43.217Z,15.95
2023-02-14T00:35:10.951Z,14.85
2023-02-14T00:37:41.126Z,15.38
2023-02-14T00:40:08.907Z,14.50
2023-02-14T00:42:35.954Z,14.90
2023-02-14T00:45:02.797Z,14.40
2023-02-14T00:47:29.580Z,15.38
2023-02-14T00:50:02.599Z,14.50
2023-02-14T00:52:31.209Z,14.73
2023-02-14T00:54:58.245Z,15.05
2023-02-14T00:57:25.356Z,14.57
2023-02-14T00:59:52.107Z,15.57
2023-02-14T01:02:20.957Z,15.52
2023-02-14T01:04:47.778Z,14.27
2023-02-14T01:07:14.603Z,14.30
2023-02-14T01:09:42.154Z,14.25
2023-02-14T01:12:08.904Z,15.02
2023-02-14T01:14:36.082Z,13.85
2023-02-14T01:17:02.885Z,14.83
2023-02-14T01:19:29.643Z,15.73
2023-02-14T01:21:56.735Z,15.43
2023-02-14T01:24:25.054Z,16.02
2023-02-14T01:26:51.875Z,16.15
2023-02-14T01:29:18.730Z,16.30
2023-02-14T01:31:48.312Z,16.20
2023-02-14T01:34:15.276Z,15.63
2023-02-14T01:36:42.163Z,14.95
2023-02-14T01:39:13.731Z,14.82
2023-02-14T01:41:42.570Z,13.87
2023-02-14T01:44:15.213Z,13.57
2023-02-14T01:46:44.146Z,14.25
2023-02-14T01:49:27.504Z,12.57
2023-02-14T01:52:12.475Z,12.55
2023-02-14T01:54:43.682Z,13.73
2023-02-14T01:57:14.894Z,12.80
2023-02-14T01:59:47.775Z,12.82
2023-02-14T02:02:14.663Z,12.52
2023-02-14T02:04:46.536Z,12.45
2023-02-14T02:07:19.716Z,11.67
2023-02-14T02:09:54.763Z,12.38
2023-02-14T02:12:24.316Z,13.45
2023-02-14T02:14:55.218Z,11.98
2023-02-14T02:17:25.239Z,12.45
2023-02-14T02:20:13.260Z,12.20
2023-02-14T02:23:17.312Z,11.98
2023-02-14T02:26:05.863Z,11.73
2023-02-14T02:29:01.637Z,11.88
2023-02-14T02:31:59.813Z,13.48
2023-02-14T02:35:05.689Z,12.80
2023-02-14T02:37:56.139Z,12.85
2023-02-14T02:41:06.661Z,13.10
2023-02-14T02:43:52.235Z,13.27
2023-02-14T02:46:47.067Z,12.60
2023-02-14T02:50:07.266Z,12.67
2023-02-14T02:53:03.004Z,12.93
2023-02-14T02:56:03.694Z,13.07
2023-02-14T02:59:02.849Z,13.88
2023-02-14T03:01:34.407Z,12.95
2023-02-14T03:04:26.390Z,13.23
2023-02-14T03:06:55.406Z,12.55
2023-02-14T03:09:28.408Z,13.80
2023-02-14T03:12:13.283Z,12.65
2023-02-14T03:14:54.725Z,12.13
2023-02-14T03:17:45.551Z,13.47
2023-02-14T03:20:23.816Z,13.40
2023-02-14T03:23:15.060Z,14.18
2023-02-14T03:26:16.267Z,12.95
2023-02-14T03:28:52.428Z,13.27
2023-02-14T03:31:38.608Z,12.37
2023-02-14T03:34:45.208Z,13.25
2023-02-14T03:37:17.523Z,13.50
2023-02-14T03:39:51.922Z,13.18
2023-02-14T03:42:32.952Z,14.10
2023-02-14T03:45:01.402Z,13.30
2023-02-14T03:47:32.859Z,14.18
2023-02-14T03:50:09.142Z,13.15
2023-02-14T03:52:37.196Z,14.30
2023-02-14T03:55:06.828Z,13.02
2023-02-14T03:58:04.191Z,12.80
2023-02-14T04:00:34.624Z,12.85
2023-02-14T04:03:07.159Z,13.80
2023-02-14T04:05:34.106Z,11.02
2023-02-14T04:08:00.937Z,13.00
2023-02-14T04:10:28.048Z,14.63
2023-02-14T04:12:55.048Z,11.93
2023-02-14T04:15:21.836Z,11.10
2023-02-14T04:18:07.347Z,12.75
2023-02-14T04:20:34.380Z,10.50
2023-02-14T04:23:03.286Z,11.33
2023-02-14T04:25:30.663Z,10.82
2023-02-14T04:27:57.668Z,9.70
2023-02-14T04:30:24.648Z,11.23
2023-02-14T04:32:51.537Z,9.65
2023-02-14T04:35:18.456Z,11.20
2023-02-14T04:37:45.666Z,10.45
2023-02-14T04:40:16.855Z,10.35
2023-02-14T04:42:45.050Z,10.10
2023-02-14T04:45:12.817Z,9.70
2023-02-14T04:47:40.000Z,10.10
2023-02-14T04:50:07.479Z,10.13
2023-02-14T04:52:34.420Z,9.82
2023-02-14T04:55:01.459Z,9.55
2023-02-14T04:57:28.229Z,11.15
2023-02-14T04:59:55.155Z,10.27
2023-02-14T05:02:21.999Z,9.90
2023-02-14T05:04:49.904Z,11.02
2023-02-14T05:07:16.903Z,9.70
2023-02-14T05:09:43.664Z,10.15
2023-02-14T05:12:10.455Z,10.67
2023-02-14T05:14:37.297Z,10.55
2023-02-14T05:17:04.167Z,11.32
2023-02-14T05:19:30.984Z,10.90
2023-02-14T05:21:57.894Z,9.93
2023-02-14T05:24:24.818Z,10.50
2023-02-14T05:26:51.899Z,11.57
2023-02-14T05:29:18.810Z,11.32
2023-02-14T05:31:46.013Z,11.60
2023-02-14T05:34:13.095Z,11.93
2023-02-14T05:36:39.962Z,11.87
2023-02-14T05:39:06.878Z,12.98
2023-02-14T05:41:33.825Z,13.27
2023-02-14T05:44:00.561Z,12.13
2023-02-14T05:46:27.335Z,12.88
2023-02-14T05:48:54.192Z,13.30
2023-02-14T05:51:20.964Z,14.18
2023-02-14T05:53:47.977Z,14.30
2023-02-14T05:56:14.799Z,14.25
2023-02-14T05:58:41.744Z,14.55
2023-02-14T06:01:08.679Z,14.50
2023-02-14T06:03:35.595Z,15.05
2023-02-14T06:06:02.759Z,14.30
2023-02-14T06:08:29.636Z,14.02
2023-02-14T06:10:56.435Z,14.23
2023-02-14T06:13:24.836Z,13.70
2023-02-14T06:15:51.781Z,14.38
2023-02-14T06:18:18.829Z,14.35
2023-02-14T06:20:45.622Z,15.27
2023-02-14T06:23:12.454Z,13.80
2023-02-14T06:25:39.364Z,13.70
2023-02-14T06:28:06.710Z,15.02
2023-02-14T06:30:33.778Z,14.88
2023-02-14T06:33:00.691Z,14.05
2023-02-14T06:35:27.670Z,13.73
2023-02-14T06:37:54.957Z,15.30
2023-02-14T06:40:22.183Z,14.13
2023-02-14T06:42:49.184Z,14.70
2023-02-14T06:45:16.090Z,14.00
2023-02-14T06:47:43.096Z,14.10
2023-02-14T06:50:11.737Z,14.40
2023-02-14T06:52:39.264Z,14.20
2023-02-14T06:55:06.575Z,14.07
2023-02-14T06:57:33.365Z,14.45
2023-02-14T07:00:00.186Z,14.90
2023-02-14T07:02:27.008Z,15.43
2023-02-14T07:04:53.858Z,14.77
2023-02-14T07:07:20.687Z,13.88
2023-02-14T07:09:47.460Z,15.27
2023-02-14T07:12:14.267Z,15.32
2023-02-14T07:14:41.221Z,15.37
2023-02-14T07:17:08.122Z,17.17
2023-02-14T07:19:35.081Z,16.65
2023-02-14T07:22:03.129Z,15.95
2023-02-14T07:24:30.569Z,16.73
2023-02-14T07:26:57.517Z,18.20
2023-02-14T07:29:24.580Z,17.63
2023-02-14T07:31:51.624Z,18.15
2023-02-14T07:34:18.461Z,16.65
2023-02-14T07:36:45.293Z,17.02
2023-02-14T07:39:12.103Z,16.73
2023-02-14T07:41:39.193Z,17.38
2023-02-14T07:44:10.099Z,16.45
2023-02-14T07:46:37.123Z,17.30
2023-02-14T07:49:04.034Z,17.55
2023-02-14T07:51:31.012Z,18.87
2023-02-14T07:53:58.125Z,18.38
2023-02-14T07:56:25.124Z,19.77
2023-02-14T07:58:51.988Z,18.02
2023-02-14T08:01:19.180Z,19.45
2023-02-14T08:03:49.333Z,18.83
2023-02-14T08:06:17.907Z,19.50
2023-02-14T08:08:45.796Z,20.35
2023-02-14T08:11:33.073Z,21.10
2023-02-14T08:14:00.408Z,21.48
2023-02-14T08:16:27.430Z,20.93
2023-02-14T08:18:54.238Z,20.20
2023-02-14T08:21:21.134Z,22.48
2023-02-14T08:23:47.936Z,21.80
2023-02-14T08:26:15.057Z,22.23
2023-02-14T08:28:41.924Z,24.30
2023-02-14T08:31:09.727Z,22.45
2023-02-14T08:33:36.561Z,22.48
2023-02-14T08:36:04.093Z,21.90
2023-02-14T08:38:31.330Z,21.77
2023-02-14T08:41:04.356Z,23.30
2023-02-14T08:43:34.355Z,21.35
2023-02-14T08:46:02.048Z,22.58
2023-02-14T08:48:29.319Z,23.05
2023-02-14T08:50:56.179Z,24.00
2023-02-14T08:53:23.200Z,24.37
2023-02-14T08:55:50.070Z,22.50
2023-02-14T08:58:16.928Z,20.17
2023-02-14T09:00:43.906Z,22.85
2023-02-14T09:03:10.816Z,21.35
2023-02-14T09:05:37.938Z,21.50
2023-02-14T09:08:04.939Z,21.25
2023-02-14T09:10:31.818Z,22.20
2023-02-14T09:12:58.633Z,22.35
2023-02-14T09:15:25.440Z,21.67
2023-02-14T09:17:52.390Z,21.13
2023-02-14T09:20:19.759Z,20.30
2023-02-14T09:22:48.755Z,22.02
2023-02-14T09:25:16.326Z,21.27
2023-02-14T09:27:43.442Z,20.90
2023-02-14T09:30:11.164Z,21.17
2023-02-14T09:32:38.169Z,21.23
2023-02-14T09:35:24.120Z,21.15
2023-02-14T09:38:09.778Z,20.42
2023-02-14T09:40:36.747Z,21.05
2023-02-14T09:43:15.137Z,22.60
2023-02-14T09:45:43.721Z,21.35
2023-02-14T09:48:28.489Z,21.52
2023-02-14T09:51:03.895Z,21.10
2023-02-14T09:53:35.100Z,21.55
2023-02-14T09:56:17.326Z,20.80
2023-02-14T09:58:50.618Z,22.58
2023-02-14T10:01:22.044Z,23.75
2023-02-14T10:04:21.158Z,23.30
2023-02-14T10:07:24.143Z,22.27
2023-02-14T10:09:59.727Z,21.73
2023-02-14T10:12:33.760Z,21.10
2023-02-14T10:15:13.880Z,21.63
2023-02-14T10:18:05.306Z,20.02
2023-02-14T10:20:44.347Z,20.83
2023-02-14T10:23:22.790Z,19.90
2023-02-14T10:25:59.210Z,20.02
2023-02-14T10:28:42.529Z,20.27
2023-02-14T10:31:55.391Z,20.13
2023-02-14T10:34:37.611Z,19.38
2023-02-14T10:37:25.921Z,20.20
2023-02-14T10:40:05.934Z,18.05
2023-02-14T10:42:32.680Z,19.50
2023-02-14T10:45:20.929Z,19.92
2023-02-14T10:48:16.634Z,19.92
2023-02-14T10:51:15.409Z,19.90
2023-02-14T10:53:48.469Z,20.15
2023-02-14T10:56:23.253Z,20.25
2023-02-14T10:58:52.415Z,20.85
2023-02-14T11:01:20.006Z,20.45
2023-02-14T11:03:58.596Z,18.70
2023-02-14T11:06:25.619Z,19.38
2023-02-14T11:08:52.520Z,19.02
2023-02-14T11:11:40.600Z,19.75
2023-02-14T11:14:24.074Z,18.05
2023-02-14T11:16:52.216Z,19.57
2023-02-14T11:19:22.761Z,19.33
2023-02-14T11:21:50.969Z,19.48
2023-02-14T11:24:24.940Z,19.90
2023-02-14T11:26:53.100Z,19.52
2023-02-14T11:29:45.650Z,19.93
2023-02-14T11:32:23.361Z,19.42
2023-02-14T11:35:07.128Z,19.52
2023-02-14T11:37:37.601Z,18.27
2023-02-14T11:40:05.844Z,18.63
2023-02-14T11:42:45.399Z,20.53
2023-02-14T11:45:29.423Z,18.15
2023-02-14T11:48:10.579Z,18.52
2023-02-14T11:50:38.771Z,18.90
2023-02-14T11:53:11.214Z,18.73
2023-02-14T11:55:38.465Z,19.23
2023-02-14T11:58:07.998Z,18.30
2023-02-14T12:00:35.186Z,19.25
2023-02-14T12:03:05.634Z,19.20
2023-02-14T12:05:43.461Z,17.63
2023-02-14T12:08:10.751Z,17.33
2023-02-14T12:10:42.433Z,18.50
2023-02-14T12:13:09.311Z,18.27
2023-02-14T12:15:51.163Z,18.58
2023-02-14T12:18:22.525Z,18.73
2023-02-14T12:21:12.864Z,19.27
2023-02-14T12:23:51.883Z,18.13
2023-02-14T12:26:33.412Z,19.58
2023-02-14T12:29:12.847Z,19.08
2023-02-14T12:31:40.260Z,18.55
2023-02-14T12:34:09.516Z,19.73
2023-02-14T12:36:55.262Z,18.90
2023-02-14T12:39:42.110Z,19.50
2023-02-14T12:42:21.713Z,20.00
2023-02-14T12:44:54.862Z,19.92
2023-02-14T12:47:24.688Z,20.17
2023-02-14T12:50:24.239Z,20.30
2023-02-14T12:53:24.366Z,19.52
2023-02-14T12:56:19.557Z,19.98
2023-02-14T12:58:52.455Z,19.58
2023-02-14T13:01:52.248Z,21.67
2023-02-14T13:04:43.427Z,19.42
2023-02-14T13:08:04.114Z,19.27
2023-02-14T13:11:08.293Z,19.88
2023-02-14T13:13:53.597Z,20.35
2023-02-14T13:16:38.715Z,20.47
2023-02-14T13:19:26.417Z,19.65
2023-02-14T13:21:56.852Z,20.40
2023-02-14T13:24:29.506Z,19.77
2023-02-14T13:27:00.361Z,20.73
2023-02-14T13:29:44.036Z,18.97
2023-02-14T13:32:14.190Z,20.02
2023-02-14T13:34:48.960Z,19.60
2023-02-14T13:37:23.590Z,19.58
2023-02-14T13:40:05.112Z,20.40
2023-02-14T13:42:50.080Z,19.83
2023-02-14T13:45:32.785Z,19.55
2023-02-14T13:48:14.745Z,19.40
2023-02-14T13:50:52.613Z,19.02
2023-02-14T13:53:31.693Z,20.13
2023-02-14T13:55:59.880Z,18.03
2023-02-14T13:58:27.437Z,18.00
2023-02-14T14:00:55.024Z,19.25
2023-02-14T14:03:27.876Z,18.80
2023-02-14T14:06:11.855Z,19.27
2023-02-14T14:08:39.944Z,19.33
2023-02-14T14:11:35.619Z,19.50
2023-02-14T14:14:24.047Z,18.33
2023-02-14T14:16:59.466Z,19.10
2023-02-14T14:19:26.475Z,19.38
2023-02-14T14:22:08.572Z,18.80
2023-02-14T14:24:41.005Z,18.50
2023-02-14T14:27:19.804Z,18.38
2023-02-14T14:29:56.023Z,17.63
2023-02-14T14:32:26.357Z,18.55
2023-02-14T14:35:11.237Z,19.60
2023-02-14T14:37:47.571Z,19.23
2023-02-14T14:40:25.625Z,18.95
2023-02-14T14:42:53.286Z,18.73
2023-02-14T14:45:26.810Z,18.55
2023-02-14T14:47:56.773Z,17.73
2023-02-14T14:50:26.558Z,18.88
2023-02-14T14:52:57.260Z,17.75
2023-02-14T14:55:30.080Z,19.70
2023-02-14T14:58:04.207Z,19.52
2023-02-14T15:00:37.386Z,19.03
2023-02-14T15:03:12.360Z,18.65
2023-02-14T15:05:48.323Z,18.02
2023-02-14T15:08:34.064Z,18.38
2023-02-14T15:11:12.286Z,18.13
2023-02-14T15:13:51.340Z,18.63
2023-02-14T15:16:28.708Z,17.75
2023-02-14T15:19:00.214Z,19.63
2023-02-14T15:21:28.386Z,19.95
2023-02-14T15:23:55.408Z,18.85
2023-02-14T15:26:35.463Z,18.77
2023-02-14T15:29:05.416Z,18.02
2023-02-14T15:31:39.595Z,18.95
2023-02-14T15:34:07.959Z,19.75
2023-02-14T15:36:35.465Z,18.02
2023-02-14T15:39:06.615Z,20.43
2023-02-14T15:41:33.606Z,19.40
2023-02-14T15:44:00.757Z,19.45
2023-02-14T15:46:39.225Z,19.65
2023-02-14T15:49:10.619Z,19.67
2023-02-14T15:51:38.574Z,19.60
2023-02-14T15:54:33.316Z,19.23
2023-02-14T15:57:00.786Z,18.50
2023-02-14T15:59:31.027Z,19.70
2023-02-14T16:02:04.697Z,19.13
2023-02-14T16:04:33.959Z,17.37
2023-02-14T16:07:25.569Z,18.13
2023-02-14T16:10:18.142Z,19.00
2023-02-14T16:13:01.176Z,18.92
2023-02-14T16:15:33.979Z,18.23
2023-02-14T16:18:16.834Z,19.27
2023-02-14T16:20:51.143Z,18.42
2023-02-14T16:23:24.717Z,19.73
2023-02-14T16:25:52.152Z,18.95
2023-02-14T16:28:19.964Z,18.88
2023-02-14T16:30:52.751Z,19.20
2023-02-14T16:33:28.297Z,19.88
2023-02-14T16:36:01.530Z,19.15
2023-02-14T16:38:28.622Z,20.10
2023-02-14T16:40:56.141Z,19.33
2023-02-14T16:43:27.622Z,18.73
2023-02-14T16:45:54.799Z,18.75
2023-02-14T16:48:22.060Z,18.50
2023-02-14T16:50:50.860Z,19.25
2023-02-14T16:53:28.950Z,18.80
2023-02-14T16:55:57.806Z,19.90
2023-02-14T16:58:36.317Z,19.05
2023-02-14T17:01:03.815Z,18.60
2023-02-14T17:03:30.815Z,19.15
2023-02-14T17:06:00.190Z,20.00
2023-02-14T17:08:28.276Z,19.33
2023-02-14T17:10:57.299Z,19.95
2023-02-14T17:13:26.663Z,19.85
2023-02-14T17:15:53.986Z,19.67
2023-02-14T17:18:23.777Z,20.58
2023-02-14T17:20:50.779Z,20.47
2023-02-14T17:23:18.433Z,20.30
2023-02-14T17:25:45.775Z,19.80
2023-02-14T17:28:13.115Z,22.65
2023-02-14T17:30:40.519Z,19.40
2023-02-14T17:33:07.588Z,20.63
2023-02-14T17:35:38.266Z,19.17
2023-02-14T17:38:05.535Z,19.45
2023-02-14T17:40:32.492Z,20.77
2023-02-14T17:43:00.762Z,21.08
2023-02-14T17:45:27.664Z,20.50
2023-02-14T17:47:54.460Z,19.92
2023-02-14T17:50:22.093Z,20.50
2023-02-14T17:52:54.266Z,20.10
2023-02-14T17:55:21.325Z,20.42
2023-02-14T17:57:52.606Z,27.23
2023-02-14T18:00:23.927Z,23.45
2023-02-14T18:02:51.137Z,21.58
2023-02-14T18:05:18.540Z,21.25
2023-02-14T18:07:45.664Z,22.10
2023-02-14T18:10:12.644Z,22.17
2023-02-14T18:12:39.676Z,21.10
2023-02-14T18:15:07.251Z,21.77
2023-02-14T18:17:34.281Z,21.55
2023-02-14T18:20:01.582Z,20.05
2023-02-14T18:22:28.617Z,20.40
2023-02-14T18:24:58.831Z,20.40
2023-02-14T18:27:26.802Z,20.30
2023-02-14T18:29:53.923Z,23.33
2023-02-14T18:32:20.927Z,25.35
2023-02-14T18:34:48.116Z,23.30
2023-02-14T18:37:15.167Z,21.85
2023-02-14T18:39:42.226Z,20.85
2023-02-14T18:42:09.359Z,20.88
2023-02-14T18:44:36.492Z,20.45
2023-02-14T18:47:06.555Z,20.80
2023-02-14T18:49:33.755Z,21.50
2023-02-14T18:52:00.883Z,21.38
2023-02-14T18:54:28.874Z,22.10
2023-02-14T18:56:55.845Z,22.95
2023-02-14T18:59:23.138Z,22.67
2023-02-14T19:01:50.198Z,23.73
2023-02-14T19:04:18.010Z,23.95
2023-02-14T19:06:45.273Z,23.27
2023-02-14T19:09:14.738Z,23.73
2023-02-14T19:11:41.801Z,23.70
2023-02-14T19:14:13.361Z,22.65
2023-02-14T19:16:53.577Z,24.65
2023-02-14T19:19:22.895Z,23.67
2023-02-14T19:21:50.657Z,25.95
2023-02-14T19:24:18.839Z,23.40
2023-02-14T19:26:46.126Z,25.27
2023-02-14T19:29:16.398Z,27.90
2023-02-14T19:31:48.226Z,27.77
2023-02-14T19:34:23.106Z,23.67
2023-02-14T19:36:52.723Z,26.30
2023-02-14T19:39:21.193Z,28.38
2023-02-14T19:41:48.927Z,26.20
2023-02-14T19:44:17.047Z,25.25
2023-02-14T19:46:46.204Z,26.50
2023-02-14T19:49:15.868Z,26.37
2023-02-14T19:51:43.400Z,31.83
2023-02-14T19:54:13.256Z,29.38
2023-02-14T19:56:43.514Z,29.10
2023-02-14T19:59:11.538Z,29.08
2023-02-14T20:01:46.419Z,27.53
2023-02-14T20:04:19.559Z,26.27
2023-02-14T20:06:49.494Z,25.88
2023-02-14T20:09:16.970Z,25.52
2023-02-14T20:11:52.509Z,27.38
2023-02-14T20:14:24.817Z,25.37
2023-02-14T20:16:53.103Z,24.90
2023-02-14T20:19:22.061Z,26.77
2023-02-14T20:21:50.767Z,25.85
2023-02-14T20:24:21.238Z,26.13
2023-02-14T20:26:49.652Z,26.63
2023-02-14T20:29:17.732Z,25.55
2023-02-14T20:31:50.862Z,24.50
2023-02-14T20:34:19.216Z,25.50
2023-02-14T20:36:53.458Z,25.10
2023-02-14T20:39:21.480Z,24.80
2023-02-14T20:41:50.411Z,24.52
2023-02-14T20:44:21.263Z,25.40
2023-02-14T20:46:55.220Z,25.30
2023-02-14T20:49:24.670Z,25.27
2023-02-14T20:51:52.152Z,25.90
2023-02-14T20:54:21.370Z,25.35
2023-02-14T20:56:48.581Z,25.63
2023-02-14T20:59:15.598Z,28.38
2023-02-14T21:01:42.674Z,23.88
2023-02-14T21:04:09.654Z,25.13
2023-02-14T21:06:38.944Z,26.33
2023-02-14T21:09:06.990Z,25.73
2023-02-14T21:11:33.938Z,26.73
2023-02-14T21:14:01.529Z,26.83
2023-02-14T21:16:30.395Z,26.13
2023-02-14T21:18:59.734Z,24.50
2023-02-14T21:21:36.961Z,27.23
2023-02-14T21:24:10.133Z,24.60
2023-02-14T21:26:37.228Z,25.23
2023-02-14T21:29:04.992Z,24.73
2023-02-14T21:31:32.948Z,25.15
2023-02-14T21:34:01.686Z,25.95
2023-02-14T21:36:31.608Z,25.65
2023-02-14T21:38:59.766Z,25.58
2023-02-14T21:41:30.300Z,24.33
2023-02-14T21:43:59.254Z,23.90
2023-02-14T21:46:32.174Z,23.52
2023-02-14T21:49:19.182Z,23.05
2023-02-14T21:51:47.430Z,25.55
2023-02-14T21:54:15.602Z,22.73
2023-02-14T21:56:43.907Z,24.60
2023-02-14T21:59:11.506Z,24.13
2023-02-14T22:01:40.373Z,23.35
2023-02-14T22:04:09.333Z,23.98
2023-02-14T22:06:38.748Z,24.00
2023-02-14T22:09:06.382Z,23.77
2023-02-14T22:11:34.211Z,23.23
2023-02-14T22:14:01.220Z,23.17
2023-02-14T22:16:28.433Z,23.95
2023-02-14T22:18:55.316Z,21.67
2023-02-14T22:21:24.497Z,24.08
2023-02-14T22:23:51.508Z,23.60
2023-02-14T22:26:24.698Z,21.50
2023-02-14T22:28:55.865Z,22.88
2023-02-14T22:31:23.774Z,22.27
2023-02-14T22:33:51.088Z,24.23
2023-02-14T22:36:18.044Z,27.05
2023-02-14T22:38:45.680Z,26.80
2023-02-14T22:41:14.649Z,27.40
2023-02-14T22:43:42.598Z,26.27
2023-02-14T22:46:12.580Z,25.08
2023-02-14T22:48:40.103Z,28.00
2023-02-14T22:51:37.612Z,30.70
2023-02-14T22:54:07.684Z,27.45
2023-02-14T22:56:38.903Z,27.10
2023-02-14T22:59:09.016Z,25.13
2023-02-14T23:01:36.415Z,27.55
2023-02-14T23:04:04.648Z,26.27
2023-02-14T23:06:34.192Z,24.75
2023-02-14T23:09:02.734Z,23.47
2023-02-14T23:11:32.997Z,23.17
2023-02-14T23:14:18.808Z,23.73
2023-02-14T23:17:04.727Z,22.10
2023-02-14T23:19:52.013Z,24.58
2023-02-14T23:22:40.272Z,22.83
2023-02-14T23:25:10.071Z,22.25
2023-02-14T23:27:41.026Z,22.00
2023-02-14T23:30:10.871Z,22.17
2023-02-14T23:32:38.112Z,21.80
2023-02-14T23:35:05.671Z,22.10
2023-02-14T23:37:33.527Z,23.08
2023-02-14T23:40:00.519Z,21.67
2023-02-14T23:42:28.223Z,21.98
2023-02-14T23:45:15.187Z,21.60
2023-02-14T23:47:42.028Z,22.53
2023-02-14T23:50:09.289Z,22.33
2023-02-14T23:52:50.931Z,21.33
2023-02-14T23:55:21.613Z,21.15
2023-02-14T23:57:48.548Z,21.15
